Philadelphia, Pennsylvania
Current Conditions -  °F | °C
As of 6:54 AM on Saturday 20 Dec 2014 (Local Time) from KPHL Reporting Station
Overcast Overcast  
Wind Chill: 25°   Ceiling: 2700
Heat Index: 33°   Visibility: 10mi
Dew Point: 22°   Wind: 9mph
Humidity: 64%   Direction: 10°N
Pressure: 30.27"   Gusts: NA
Location:  39.95°N, 75.16°W
Report Text: KPHL 201154Z 01008KT 10SM OVC027 01/M06 A3027 RMK AO2 SLP250 T00061056 10017 20006 51010
Loading
Personal Weather Stations






























Interactive Weather Map New forecast layout! Learn more

10-Day Weather Forecast

Advertisements
Track Severe Weather on mobile